sensor_id;sensor_type;location;lat;lon;timestamp;P1;durP1;ratioP1;P2;durP2;ratioP2
28760;SDS011;15917;50.014;8.352;2023-09-07T00:00:13;4.85;;;2.25;;
28760;SDS011;15917;50.014;8.352;2023-09-07T00:02:39;5.90;;;2.50;;
28760;SDS011;15917;50.014;8.352;2023-09-07T00:05:05;9.95;;;2.70;;
28760;SDS011;15917;50.014;8.352;2023-09-07T00:07:32;6.70;;;2.73;;
28760;SDS011;15917;50.014;8.352;2023-09-07T00:09:58;5.95;;;2.60;;
28760;SDS011;15917;50.014;8.352;2023-09-07T00:12:24;2.88;;;2.28;;
28760;SDS011;15917;50.014;8.352;2023-09-07T00:14:50;5.55;;;1.95;;
28760;SDS011;15917;50.014;8.352;2023-09-07T00:17:17;3.80;;;2.10;;
28760;SDS011;15917;50.014;8.352;2023-09-07T00:19:43;11.98;;;2.70;;
28760;SDS011;15917;50.014;8.352;2023-09-07T00:22:11;9.18;;;2.67;;
28760;SDS011;15917;50.014;8.352;2023-09-07T00:24:37;4.40;;;2.78;;
28760;SDS011;15917;50.014;8.352;2023-09-07T00:27:02;3.50;;;2.17;;
28760;SDS011;15917;50.014;8.352;2023-09-07T00:29:30;3.10;;;2.25;;
28760;SDS011;15917;50.014;8.352;2023-09-07T00:31:56;6.40;;;2.75;;
28760;SDS011;15917;50.014;8.352;2023-09-07T00:34:22;6.13;;;2.50;;
28760;SDS011;15917;50.014;8.352;2023-09-07T00:36:47;5.38;;;2.08;;
28760;SDS011;15917;50.014;8.352;2023-09-07T00:39:13;7.38;;;2.92;;
28760;SDS011;15917;50.014;8.352;2023-09-07T00:41:39;4.05;;;2.47;;
28760;SDS011;15917;50.014;8.352;2023-09-07T00:44:04;2.75;;;2.22;;
28760;SDS011;15917;50.014;8.352;2023-09-07T00:46:30;7.47;;;2.38;;
28760;SDS011;15917;50.014;8.352;2023-09-07T00:48:55;5.63;;;2.60;;
28760;SDS011;15917;50.014;8.352;2023-09-07T00:51:22;6.03;;;2.30;;
28760;SDS011;15917;50.014;8.352;2023-09-07T00:53:48;4.43;;;2.47;;
28760;SDS011;15917;50.014;8.352;2023-09-07T00:56:14;3.38;;;2.08;;
28760;SDS011;15917;50.014;8.352;2023-09-07T00:58:41;4.78;;;1.98;;
28760;SDS011;15917;50.014;8.352;2023-09-07T01:01:08;3.95;;;2.63;;
28760;SDS011;15917;50.014;8.352;2023-09-07T01:03:34;7.20;;;2.83;;
28760;SDS011;15917;50.014;8.352;2023-09-07T01:06:12;6.32;;;2.55;;
28760;SDS011;15917;50.014;8.352;2023-09-07T01:08:45;8.68;;;2.90;;
28760;SDS011;15917;50.014;8.352;2023-09-07T01:11:13;5.13;;;2.47;;
28760;SDS011;15917;50.014;8.352;2023-09-07T01:13:40;2.88;;;2.25;;
28760;SDS011;15917;50.014;8.352;2023-09-07T01:16:07;12.80;;;2.85;;
28760;SDS011;15917;50.014;8.352;2023-09-07T01:18:34;12.45;;;2.70;;
28760;SDS011;15917;50.014;8.352;2023-09-07T01:21:05;3.42;;;2.50;;
28760;SDS011;15917;50.014;8.352;2023-09-07T01:23:37;4.93;;;2.40;;
28760;SDS011;15917;50.014;8.352;2023-09-07T01:26:07;5.93;;;2.58;;
28760;SDS011;15917;50.014;8.352;2023-09-07T01:30:59;4.68;;;2.55;;
28760;SDS011;15917;50.014;8.352;2023-09-07T01:33:26;4.40;;;2.50;;
28760;SDS011;15917;50.014;8.352;2023-09-07T01:35:52;4.07;;;2.53;;
28760;SDS011;15917;50.014;8.352;2023-09-07T01:38:18;3.97;;;2.35;;
28760;SDS011;15917;50.014;8.352;2023-09-07T01:40:44;6.20;;;2.53;;
28760;SDS011;15917;50.014;8.352;2023-09-07T01:43:11;4.10;;;2.63;;
28760;SDS011;15917;50.014;8.352;2023-09-07T01:45:36;5.97;;;2.17;;
28760;SDS011;15917;50.014;8.352;2023-09-07T01:48:02;6.45;;;2.80;;
28760;SDS011;15917;50.014;8.352;2023-09-07T01:50:30;5.80;;;2.67;;
28760;SDS011;15917;50.014;8.352;2023-09-07T01:52:56;7.78;;;2.33;;
28760;SDS011;15917;50.014;8.352;2023-09-07T01:55:22;4.15;;;2.50;;
28760;SDS011;15917;50.014;8.352;2023-09-07T01:57:48;3.30;;;2.35;;
28760;SDS011;15917;50.014;8.352;2023-09-07T02:00:13;6.95;;;2.47;;
28760;SDS011;15917;50.014;8.352;2023-09-07T02:02:40;11.15;;;2.70;;
28760;SDS011;15917;50.014;8.352;2023-09-07T02:05:06;4.38;;;2.30;;
28760;SDS011;15917;50.014;8.352;2023-09-07T02:07:31;6.10;;;2.75;;
28760;SDS011;15917;50.014;8.352;2023-09-07T02:09:57;5.65;;;2.40;;
28760;SDS011;15917;50.014;8.352;2023-09-07T02:12:23;7.95;;;2.83;;
28760;SDS011;15917;50.014;8.352;2023-09-07T02:14:48;5.32;;;2.75;;
28760;SDS011;15917;50.014;8.352;2023-09-07T02:17:14;3.90;;;2.30;;
28760;SDS011;15917;50.014;8.352;2023-09-07T02:19:44;5.18;;;2.78;;
28760;SDS011;15917;50.014;8.352;2023-09-07T02:22:10;5.78;;;2.28;;
28760;SDS011;15917;50.014;8.352;2023-09-07T02:24:35;6.40;;;2.33;;
28760;SDS011;15917;50.014;8.352;2023-09-07T02:27:01;4.63;;;2.67;;
28760;SDS011;15917;50.014;8.352;2023-09-07T02:29:27;8.85;;;2.67;;
28760;SDS011;15917;50.014;8.352;2023-09-07T02:31:52;4.32;;;2.65;;
28760;SDS011;15917;50.014;8.352;2023-09-07T02:34:19;5.72;;;2.75;;
28760;SDS011;15917;50.014;8.352;2023-09-07T02:36:44;6.72;;;2.63;;
28760;SDS011;15917;50.014;8.352;2023-09-07T02:39:10;3.42;;;2.30;;
28760;SDS011;15917;50.014;8.352;2023-09-07T02:41:37;5.47;;;2.60;;
28760;SDS011;15917;50.014;8.352;2023-09-07T02:44:03;5.88;;;2.78;;
28760;SDS011;15917;50.014;8.352;2023-09-07T02:46:29;14.10;;;2.75;;
28760;SDS011;15917;50.014;8.352;2023-09-07T02:48:58;7.88;;;2.70;;
28760;SDS011;15917;50.014;8.352;2023-09-07T02:51:25;4.00;;;2.45;;
28760;SDS011;15917;50.014;8.352;2023-09-07T02:53:53;6.38;;;2.78;;
28760;SDS011;15917;50.014;8.352;2023-09-07T02:56:19;3.63;;;2.72;;
28760;SDS011;15917;50.014;8.352;2023-09-07T02:58:45;7.50;;;2.85;;
28760;SDS011;15917;50.014;8.352;2023-09-07T03:01:11;8.35;;;2.72;;
28760;SDS011;15917;50.014;8.352;2023-09-07T03:03:38;9.90;;;3.08;;
28760;SDS011;15917;50.014;8.352;2023-09-07T03:06:10;5.15;;;2.70;;
28760;SDS011;15917;50.014;8.352;2023-09-07T03:08:39;5.57;;;2.80;;
28760;SDS011;15917;50.014;8.352;2023-09-07T03:11:05;7.80;;;3.17;;
28760;SDS011;15917;50.014;8.352;2023-09-07T03:13:32;5.95;;;2.75;;
28760;SDS011;15917;50.014;8.352;2023-09-07T03:15:58;5.28;;;3.13;;
28760;SDS011;15917;50.014;8.352;2023-09-07T03:18:24;4.95;;;2.88;;
28760;SDS011;15917;50.014;8.352;2023-09-07T03:20:50;4.40;;;3.03;;
28760;SDS011;15917;50.014;8.352;2023-09-07T03:23:18;5.82;;;2.95;;
28760;SDS011;15917;50.014;8.352;2023-09-07T03:25:43;5.45;;;2.78;;
28760;SDS011;15917;50.014;8.352;2023-09-07T03:28:09;4.32;;;2.50;;
28760;SDS011;15917;50.014;8.352;2023-09-07T03:30:36;5.53;;;3.42;;
28760;SDS011;15917;50.014;8.352;2023-09-07T03:33:04;8.70;;;3.70;;
28760;SDS011;15917;50.014;8.352;2023-09-07T03:35:30;11.23;;;2.90;;
28760;SDS011;15917;50.014;8.352;2023-09-07T03:37:56;10.98;;;3.53;;
28760;SDS011;15917;50.014;8.352;2023-09-07T03:40:22;6.35;;;2.78;;
28760;SDS011;15917;50.014;8.352;2023-09-07T03:42:48;6.47;;;3.00;;
28760;SDS011;15917;50.014;8.352;2023-09-07T03:45:15;10.30;;;3.15;;
28760;SDS011;15917;50.014;8.352;2023-09-07T03:47:40;6.35;;;3.05;;
28760;SDS011;15917;50.014;8.352;2023-09-07T03:50:07;5.68;;;2.78;;
28760;SDS011;15917;50.014;8.352;2023-09-07T03:52:33;5.00;;;3.03;;
28760;SDS011;15917;50.014;8.352;2023-09-07T03:55:01;6.53;;;2.78;;
28760;SDS011;15917;50.014;8.352;2023-09-07T03:57:27;6.22;;;2.67;;
28760;SDS011;15917;50.014;8.352;2023-09-07T03:59:53;5.43;;;3.42;;
28760;SDS011;15917;50.014;8.352;2023-09-07T04:02:22;5.78;;;2.95;;
28760;SDS011;15917;50.014;8.352;2023-09-07T04:04:49;7.72;;;3.40;;
28760;SDS011;15917;50.014;8.352;2023-09-07T04:07:15;8.48;;;3.25;;
28760;SDS011;15917;50.014;8.352;2023-09-07T04:09:41;12.70;;;2.92;;
28760;SDS011;15917;50.014;8.352;2023-09-07T04:12:08;7.13;;;2.83;;
28760;SDS011;15917;50.014;8.352;2023-09-07T04:14:34;4.95;;;3.13;;
28760;SDS011;15917;50.014;8.352;2023-09-07T04:17:00;5.30;;;3.38;;
28760;SDS011;15917;50.014;8.352;2023-09-07T04:19:26;10.45;;;3.05;;
28760;SDS011;15917;50.014;8.352;2023-09-07T04:21:52;7.72;;;3.22;;
28760;SDS011;15917;50.014;8.352;2023-09-07T04:24:18;7.07;;;3.13;;
28760;SDS011;15917;50.014;8.352;2023-09-07T04:26:44;5.68;;;2.90;;
28760;SDS011;15917;50.014;8.352;2023-09-07T04:29:09;9.85;;;3.20;;
28760;SDS011;15917;50.014;8.352;2023-09-07T04:31:37;4.88;;;2.90;;
28760;SDS011;15917;50.014;8.352;2023-09-07T04:34:02;13.73;;;3.63;;
28760;SDS011;15917;50.014;8.352;2023-09-07T04:36:28;9.57;;;3.75;;
28760;SDS011;15917;50.014;8.352;2023-09-07T04:38:54;6.32;;;3.70;;
28760;SDS011;15917;50.014;8.352;2023-09-07T04:41:20;7.22;;;3.40;;
28760;SDS011;15917;50.014;8.352;2023-09-07T04:43:46;10.32;;;3.63;;
28760;SDS011;15917;50.014;8.352;2023-09-07T04:46:12;7.35;;;3.20;;
28760;SDS011;15917;50.014;8.352;2023-09-07T04:48:38;6.40;;;3.22;;
28760;SDS011;15917;50.014;8.352;2023-09-07T04:51:07;7.25;;;3.75;;
28760;SDS011;15917;50.014;8.352;2023-09-07T04:56:01;6.30;;;3.45;;
28760;SDS011;15917;50.014;8.352;2023-09-07T04:58:27;11.57;;;3.42;;
28760;SDS011;15917;50.014;8.352;2023-09-07T05:00:53;7.22;;;4.50;;
28760;SDS011;15917;50.014;8.352;2023-09-07T05:03:19;10.82;;;3.05;;
28760;SDS011;15917;50.014;8.352;2023-09-07T05:05:46;9.52;;;4.65;;
28760;SDS011;15917;50.014;8.352;2023-09-07T05:08:16;6.75;;;3.97;;
28760;SDS011;15917;50.014;8.352;2023-09-07T05:10:42;14.27;;;3.72;;
28760;SDS011;15917;50.014;8.352;2023-09-07T05:13:08;7.20;;;3.85;;
28760;SDS011;15917;50.014;8.352;2023-09-07T05:15:33;13.90;;;4.40;;
28760;SDS011;15917;50.014;8.352;2023-09-07T05:17:59;12.10;;;3.85;;
28760;SDS011;15917;50.014;8.352;2023-09-07T05:20:25;11.65;;;3.70;;
28760;SDS011;15917;50.014;8.352;2023-09-07T05:22:52;13.02;;;4.00;;
28760;SDS011;15917;50.014;8.352;2023-09-07T05:25:18;9.52;;;3.67;;
28760;SDS011;15917;50.014;8.352;2023-09-07T05:27:45;13.70;;;4.00;;
28760;SDS011;15917;50.014;8.352;2023-09-07T05:30:11;14.27;;;3.97;;
28760;SDS011;15917;50.014;8.352;2023-09-07T05:32:37;9.07;;;4.13;;
28760;SDS011;15917;50.014;8.352;2023-09-07T05:35:03;10.93;;;3.85;;
28760;SDS011;15917;50.014;8.352;2023-09-07T05:37:29;10.13;;;4.07;;
28760;SDS011;15917;50.014;8.352;2023-09-07T05:39:55;11.35;;;3.92;;
28760;SDS011;15917;50.014;8.352;2023-09-07T05:42:21;5.70;;;3.72;;
28760;SDS011;15917;50.014;8.352;2023-09-07T05:44:46;13.88;;;3.95;;
28760;SDS011;15917;50.014;8.352;2023-09-07T05:47:12;8.63;;;3.53;;
28760;SDS011;15917;50.014;8.352;2023-09-07T05:49:37;8.27;;;4.30;;
28760;SDS011;15917;50.014;8.352;2023-09-07T05:52:03;10.07;;;3.65;;
28760;SDS011;15917;50.014;8.352;2023-09-07T05:54:29;7.45;;;3.25;;
28760;SDS011;15917;50.014;8.352;2023-09-07T05:56:55;8.30;;;3.75;;
28760;SDS011;15917;50.014;8.352;2023-09-07T05:59:20;16.00;;;4.40;;
28760;SDS011;15917;50.014;8.352;2023-09-07T06:01:46;13.45;;;4.10;;
28760;SDS011;15917;50.014;8.352;2023-09-07T06:04:12;5.97;;;3.78;;
28760;SDS011;15917;50.014;8.352;2023-09-07T06:06:38;11.82;;;3.80;;
28760;SDS011;15917;50.014;8.352;2023-09-07T06:09:03;10.02;;;3.90;;
28760;SDS011;15917;50.014;8.352;2023-09-07T06:11:29;14.57;;;4.18;;
28760;SDS011;15917;50.014;8.352;2023-09-07T06:13:58;7.97;;;4.05;;
28760;SDS011;15917;50.014;8.352;2023-09-07T06:16:23;10.73;;;4.43;;
28760;SDS011;15917;50.014;8.352;2023-09-07T06:18:49;11.35;;;3.85;;
28760;SDS011;15917;50.014;8.352;2023-09-07T06:21:15;14.13;;;4.35;;
28760;SDS011;15917;50.014;8.352;2023-09-07T06:23:41;10.93;;;4.40;;
28760;SDS011;15917;50.014;8.352;2023-09-07T06:26:07;15.75;;;4.45;;
28760;SDS011;15917;50.014;8.352;2023-09-07T06:28:32;20.17;;;4.53;;
28760;SDS011;15917;50.014;8.352;2023-09-07T06:30:59;11.90;;;4.55;;
28760;SDS011;15917;50.014;8.352;2023-09-07T06:33:24;10.50;;;4.28;;
28760;SDS011;15917;50.014;8.352;2023-09-07T06:35:50;14.45;;;4.28;;
28760;SDS011;15917;50.014;8.352;2023-09-07T06:38:16;6.38;;;3.88;;
28760;SDS011;15917;50.014;8.352;2023-09-07T06:40:47;7.57;;;4.32;;
28760;SDS011;15917;50.014;8.352;2023-09-07T06:43:17;16.60;;;4.35;;
28760;SDS011;15917;50.014;8.352;2023-09-07T06:45:43;11.65;;;3.83;;
28760;SDS011;15917;50.014;8.352;2023-09-07T06:48:09;9.00;;;3.65;;
28760;SDS011;15917;50.014;8.352;2023-09-07T06:50:35;6.22;;;3.88;;
28760;SDS011;15917;50.014;8.352;2023-09-07T06:53:00;10.27;;;3.97;;
28760;SDS011;15917;50.014;8.352;2023-09-07T06:55:28;7.77;;;4.20;;
28760;SDS011;15917;50.014;8.352;2023-09-07T06:57:54;8.70;;;3.90;;
28760;SDS011;15917;50.014;8.352;2023-09-07T07:00:20;12.02;;;3.90;;
28760;SDS011;15917;50.014;8.352;2023-09-07T07:02:47;11.13;;;4.65;;
28760;SDS011;15917;50.014;8.352;2023-09-07T07:05:13;11.43;;;4.18;;
28760;SDS011;15917;50.014;8.352;2023-09-07T07:07:39;7.50;;;3.78;;
28760;SDS011;15917;50.014;8.352;2023-09-07T07:10:06;8.52;;;3.53;;
28760;SDS011;15917;50.014;8.352;2023-09-07T07:12:32;13.50;;;4.15;;
28760;SDS011;15917;50.014;8.352;2023-09-07T07:15:03;9.80;;;3.83;;
28760;SDS011;15917;50.014;8.352;2023-09-07T07:17:30;10.40;;;4.43;;
28760;SDS011;15917;50.014;8.352;2023-09-07T07:19:56;7.05;;;4.18;;
28760;SDS011;15917;50.014;8.352;2023-09-07T07:22:22;6.68;;;3.95;;
28760;SDS011;15917;50.014;8.352;2023-09-07T07:24:49;11.63;;;4.15;;
28760;SDS011;15917;50.014;8.352;2023-09-07T07:27:14;8.57;;;3.83;;
28760;SDS011;15917;50.014;8.352;2023-09-07T07:29:40;8.50;;;3.75;;
28760;SDS011;15917;50.014;8.352;2023-09-07T07:32:06;8.50;;;3.90;;
28760;SDS011;15917;50.014;8.352;2023-09-07T07:34:32;11.38;;;5.00;;
28760;SDS011;15917;50.014;8.352;2023-09-07T07:36:58;15.80;;;4.05;;
28760;SDS011;15917;50.014;8.352;2023-09-07T07:39:23;11.30;;;4.38;;
28760;SDS011;15917;50.014;8.352;2023-09-07T07:41:50;10.88;;;4.07;;
28760;SDS011;15917;50.014;8.352;2023-09-07T07:44:16;11.73;;;4.40;;
28760;SDS011;15917;50.014;8.352;2023-09-07T07:46:42;15.63;;;4.50;;
28760;SDS011;15917;50.014;8.352;2023-09-07T07:49:08;9.10;;;4.28;;
28760;SDS011;15917;50.014;8.352;2023-09-07T07:51:34;8.93;;;4.40;;
28760;SDS011;15917;50.014;8.352;2023-09-07T07:54:00;8.40;;;3.88;;
28760;SDS011;15917;50.014;8.352;2023-09-07T07:56:26;13.43;;;4.20;;
28760;SDS011;15917;50.014;8.352;2023-09-07T07:58:53;14.73;;;4.30;;
28760;SDS011;15917;50.014;8.352;2023-09-07T08:01:19;10.23;;;4.00;;
28760;SDS011;15917;50.014;8.352;2023-09-07T08:03:47;8.60;;;3.90;;
28760;SDS011;15917;50.014;8.352;2023-09-07T08:06:12;9.05;;;4.28;;
28760;SDS011;15917;50.014;8.352;2023-09-07T08:08:39;7.43;;;4.30;;
28760;SDS011;15917;50.014;8.352;2023-09-07T08:11:06;10.18;;;4.20;;
28760;SDS011;15917;50.014;8.352;2023-09-07T08:13:34;8.27;;;4.38;;
28760;SDS011;15917;50.014;8.352;2023-09-07T08:16:01;8.52;;;3.72;;
28760;SDS011;15917;50.014;8.352;2023-09-07T08:18:27;7.18;;;3.78;;
28760;SDS011;15917;50.014;8.352;2023-09-07T08:20:53;8.93;;;3.70;;
28760;SDS011;15917;50.014;8.352;2023-09-07T08:23:21;6.90;;;3.63;;
28760;SDS011;15917;50.014;8.352;2023-09-07T08:25:48;12.65;;;4.40;;
28760;SDS011;15917;50.014;8.352;2023-09-07T08:28:15;6.90;;;3.67;;
28760;SDS011;15917;50.014;8.352;2023-09-07T08:30:43;10.65;;;3.53;;
28760;SDS011;15917;50.014;8.352;2023-09-07T08:33:09;9.93;;;4.68;;
28760;SDS011;15917;50.014;8.352;2023-09-07T08:35:34;9.90;;;4.07;;
28760;SDS011;15917;50.014;8.352;2023-09-07T08:38:01;8.90;;;4.25;;
28760;SDS011;15917;50.014;8.352;2023-09-07T08:40:30;6.55;;;4.22;;
28760;SDS011;15917;50.014;8.352;2023-09-07T08:42:58;7.78;;;3.50;;
28760;SDS011;15917;50.014;8.352;2023-09-07T08:45:28;10.10;;;3.88;;
28760;SDS011;15917;50.014;8.352;2023-09-07T08:47:57;8.15;;;4.50;;
28760;SDS011;15917;50.014;8.352;2023-09-07T08:50:23;7.78;;;3.95;;
28760;SDS011;15917;50.014;8.352;2023-09-07T08:52:51;11.50;;;4.00;;
28760;SDS011;15917;50.014;8.352;2023-09-07T08:57:43;9.10;;;4.25;;
28760;SDS011;15917;50.014;8.352;2023-09-07T09:00:08;8.32;;;3.75;;
28760;SDS011;15917;50.014;8.352;2023-09-07T09:02:40;7.68;;;4.13;;
28760;SDS011;15917;50.014;8.352;2023-09-07T09:05:08;14.13;;;3.33;;
28760;SDS011;15917;50.014;8.352;2023-09-07T09:07:35;6.55;;;3.88;;
28760;SDS011;15917;50.014;8.352;2023-09-07T09:10:05;13.80;;;4.22;;
28760;SDS011;15917;50.014;8.352;2023-09-07T09:12:31;9.05;;;3.83;;
28760;SDS011;15917;50.014;8.352;2023-09-07T09:14:58;5.53;;;3.88;;
28760;SDS011;15917;50.014;8.352;2023-09-07T09:17:25;7.13;;;3.83;;
28760;SDS011;15917;50.014;8.352;2023-09-07T09:19:51;8.95;;;3.83;;
28760;SDS011;15917;50.014;8.352;2023-09-07T09:22:16;9.40;;;3.67;;
28760;SDS011;15917;50.014;8.352;2023-09-07T09:24:42;13.48;;;4.18;;
28760;SDS011;15917;50.014;8.352;2023-09-07T09:27:08;10.30;;;3.80;;
28760;SDS011;15917;50.014;8.352;2023-09-07T09:29:34;8.20;;;3.50;;
28760;SDS011;15917;50.014;8.352;2023-09-07T09:32:03;10.40;;;4.10;;
28760;SDS011;15917;50.014;8.352;2023-09-07T09:34:34;11.80;;;4.25;;
28760;SDS011;15917;50.014;8.352;2023-09-07T09:37:01;7.68;;;3.67;;
28760;SDS011;15917;50.014;8.352;2023-09-07T09:39:28;12.88;;;4.03;;
28760;SDS011;15917;50.014;8.352;2023-09-07T09:41:54;15.85;;;4.53;;
28760;SDS011;15917;50.014;8.352;2023-09-07T09:44:21;8.68;;;3.70;;
28760;SDS011;15917;50.014;8.352;2023-09-07T09:46:54;10.55;;;3.60;;
28760;SDS011;15917;50.014;8.352;2023-09-07T09:49:21;8.40;;;3.53;;
28760;SDS011;15917;50.014;8.352;2023-09-07T09:51:48;8.93;;;3.80;;
28760;SDS011;15917;50.014;8.352;2023-09-07T09:54:19;6.45;;;3.67;;
28760;SDS011;15917;50.014;8.352;2023-09-07T09:56:45;11.18;;;5.07;;
28760;SDS011;15917;50.014;8.352;2023-09-07T09:59:14;9.60;;;3.40;;
28760;SDS011;15917;50.014;8.352;2023-09-07T10:01:41;6.55;;;3.45;;
28760;SDS011;15917;50.014;8.352;2023-09-07T10:04:14;5.07;;;3.47;;
28760;SDS011;15917;50.014;8.352;2023-09-07T10:06:54;7.13;;;4.00;;
28760;SDS011;15917;50.014;8.352;2023-09-07T10:09:23;9.02;;;4.07;;
28760;SDS011;15917;50.014;8.352;2023-09-07T10:11:57;7.85;;;3.30;;
28760;SDS011;15917;50.014;8.352;2023-09-07T10:14:24;4.15;;;3.10;;
28760;SDS011;15917;50.014;8.352;2023-09-07T10:16:53;8.65;;;3.90;;
28760;SDS011;15917;50.014;8.352;2023-09-07T10:19:25;4.90;;;3.38;;
28760;SDS011;15917;50.014;8.352;2023-09-07T10:21:54;5.38;;;3.15;;
28760;SDS011;15917;50.014;8.352;2023-09-07T10:24:24;14.13;;;3.42;;
28760;SDS011;15917;50.014;8.352;2023-09-07T10:27:01;5.30;;;3.42;;
28760;SDS011;15917;50.014;8.352;2023-09-07T10:29:27;9.90;;;3.42;;
28760;SDS011;15917;50.014;8.352;2023-09-07T10:31:53;8.32;;;3.60;;
28760;SDS011;15917;50.014;8.352;2023-09-07T10:34:19;6.93;;;3.28;;
28760;SDS011;15917;50.014;8.352;2023-09-07T10:36:47;5.95;;;2.85;;
28760;SDS011;15917;50.014;8.352;2023-09-07T10:39:13;5.50;;;4.15;;
28760;SDS011;15917;50.014;8.352;2023-09-07T10:41:42;7.00;;;3.30;;
28760;SDS011;15917;50.014;8.352;2023-09-07T10:44:09;8.10;;;3.50;;
28760;SDS011;15917;50.014;8.352;2023-09-07T10:46:39;4.57;;;3.03;;
28760;SDS011;15917;50.014;8.352;2023-09-07T10:49:08;6.72;;;3.50;;
28760;SDS011;15917;50.014;8.352;2023-09-07T10:51:40;11.00;;;3.20;;
28760;SDS011;15917;50.014;8.352;2023-09-07T10:54:15;5.25;;;3.58;;
28760;SDS011;15917;50.014;8.352;2023-09-07T10:56:45;4.85;;;3.13;;
28760;SDS011;15917;50.014;8.352;2023-09-07T10:59:12;5.68;;;3.10;;
28760;SDS011;15917;50.014;8.352;2023-09-07T11:01:38;6.28;;;3.47;;
28760;SDS011;15917;50.014;8.352;2023-09-07T11:04:04;5.35;;;3.33;;
28760;SDS011;15917;50.014;8.352;2023-09-07T11:06:30;5.88;;;3.03;;
28760;SDS011;15917;50.014;8.352;2023-09-07T11:08:59;5.75;;;3.33;;
28760;SDS011;15917;50.014;8.352;2023-09-07T11:11:26;6.32;;;3.10;;
28760;SDS011;15917;50.014;8.352;2023-09-07T11:13:52;7.70;;;3.28;;
28760;SDS011;15917;50.014;8.352;2023-09-07T11:16:17;5.10;;;3.22;;
28760;SDS011;15917;50.014;8.352;2023-09-07T11:18:44;5.80;;;3.58;;
28760;SDS011;15917;50.014;8.352;2023-09-07T11:21:11;9.02;;;3.58;;
28760;SDS011;15917;50.014;8.352;2023-09-07T11:23:36;8.73;;;4.15;;
28760;SDS011;15917;50.014;8.352;2023-09-07T11:26:05;15.68;;;3.60;;
28760;SDS011;15917;50.014;8.352;2023-09-07T11:28:33;12.88;;;3.97;;
28760;SDS011;15917;50.014;8.352;2023-09-07T11:30:59;6.57;;;2.97;;
28760;SDS011;15917;50.014;8.352;2023-09-07T11:33:25;7.63;;;3.88;;
28760;SDS011;15917;50.014;8.352;2023-09-07T11:35:52;7.28;;;3.47;;
28760;SDS011;15917;50.014;8.352;2023-09-07T11:38:21;8.82;;;3.47;;
28760;SDS011;15917;50.014;8.352;2023-09-07T11:40:47;6.72;;;3.22;;
28760;SDS011;15917;50.014;8.352;2023-09-07T11:43:16;7.78;;;3.50;;
28760;SDS011;15917;50.014;8.352;2023-09-07T11:45:46;10.63;;;3.47;;
28760;SDS011;15917;50.014;8.352;2023-09-07T11:48:11;14.35;;;3.42;;
28760;SDS011;15917;50.014;8.352;2023-09-07T11:50:38;6.70;;;3.45;;
28760;SDS011;15917;50.014;8.352;2023-09-07T11:55:31;6.47;;;3.22;;
28760;SDS011;15917;50.014;8.352;2023-09-07T11:57:57;6.07;;;3.58;;
28760;SDS011;15917;50.014;8.352;2023-09-07T12:00:23;12.27;;;4.25;;
28760;SDS011;15917;50.014;8.352;2023-09-07T12:02:48;7.55;;;3.92;;
28760;SDS011;15917;50.014;8.352;2023-09-07T12:05:14;6.70;;;3.60;;
28760;SDS011;15917;50.014;8.352;2023-09-07T12:07:41;11.30;;;3.55;;
28760;SDS011;15917;50.014;8.352;2023-09-07T12:10:10;4.88;;;2.92;;
28760;SDS011;15917;50.014;8.352;2023-09-07T12:12:38;7.68;;;3.47;;
28760;SDS011;15917;50.014;8.352;2023-09-07T12:15:05;4.47;;;3.03;;
28760;SDS011;15917;50.014;8.352;2023-09-07T12:17:31;5.93;;;3.53;;
28760;SDS011;15917;50.014;8.352;2023-09-07T12:19:57;10.25;;;3.15;;
28760;SDS011;15917;50.014;8.352;2023-09-07T12:22:23;9.20;;;3.75;;
28760;SDS011;15917;50.014;8.352;2023-09-07T12:24:49;4.80;;;3.05;;
28760;SDS011;15917;50.014;8.352;2023-09-07T12:27:14;8.85;;;3.70;;
28760;SDS011;15917;50.014;8.352;2023-09-07T12:29:40;5.82;;;3.20;;
28760;SDS011;15917;50.014;8.352;2023-09-07T12:32:06;7.65;;;3.40;;
28760;SDS011;15917;50.014;8.352;2023-09-07T12:34:31;9.57;;;3.42;;
28760;SDS011;15917;50.014;8.352;2023-09-07T12:36:57;7.38;;;3.55;;
28760;SDS011;15917;50.014;8.352;2023-09-07T12:39:23;3.95;;;3.17;;
28760;SDS011;15917;50.014;8.352;2023-09-07T12:41:49;4.70;;;3.70;;
28760;SDS011;15917;50.014;8.352;2023-09-07T12:44:15;6.60;;;3.72;;
28760;SDS011;15917;50.014;8.352;2023-09-07T12:46:43;8.25;;;3.65;;
28760;SDS011;15917;50.014;8.352;2023-09-07T12:49:09;7.35;;;3.70;;
28760;SDS011;15917;50.014;8.352;2023-09-07T12:51:35;8.00;;;3.15;;
28760;SDS011;15917;50.014;8.352;2023-09-07T12:54:00;8.55;;;2.90;;
28760;SDS011;15917;50.014;8.352;2023-09-07T12:56:26;10.13;;;3.00;;
28760;SDS011;15917;50.014;8.352;2023-09-07T12:58:52;10.52;;;3.55;;
28760;SDS011;15917;50.014;8.352;2023-09-07T13:01:18;4.35;;;3.03;;
28760;SDS011;15917;50.014;8.352;2023-09-07T13:03:44;5.85;;;4.03;;
28760;SDS011;15917;50.014;8.352;2023-09-07T13:06:09;6.40;;;3.55;;
28760;SDS011;15917;50.014;8.352;2023-09-07T13:08:35;4.82;;;2.92;;
28760;SDS011;15917;50.014;8.352;2023-09-07T13:11:01;6.68;;;2.90;;
28760;SDS011;15917;50.014;8.352;2023-09-07T13:13:26;8.40;;;3.55;;
28760;SDS011;15917;50.014;8.352;2023-09-07T13:15:57;7.50;;;3.78;;
28760;SDS011;15917;50.014;8.352;2023-09-07T13:18:23;3.17;;;2.55;;
28760;SDS011;15917;50.014;8.352;2023-09-07T13:20:50;4.93;;;3.10;;
28760;SDS011;15917;50.014;8.352;2023-09-07T13:23:19;5.35;;;3.20;;
28760;SDS011;15917;50.014;8.352;2023-09-07T13:25:45;4.78;;;2.75;;
28760;SDS011;15917;50.014;8.352;2023-09-07T13:28:11;6.30;;;2.80;;
28760;SDS011;15917;50.014;8.352;2023-09-07T13:30:36;5.78;;;3.13;;
28760;SDS011;15917;50.014;8.352;2023-09-07T13:33:02;4.50;;;2.85;;
28760;SDS011;15917;50.014;8.352;2023-09-07T13:35:28;7.93;;;3.35;;
28760;SDS011;15917;50.014;8.352;2023-09-07T13:37:54;5.80;;;3.40;;
28760;SDS011;15917;50.014;8.352;2023-09-07T13:40:20;8.63;;;2.90;;
28760;SDS011;15917;50.014;8.352;2023-09-07T13:42:49;14.82;;;4.18;;
28760;SDS011;15917;50.014;8.352;2023-09-07T13:45:14;4.93;;;3.15;;
28760;SDS011;15917;50.014;8.352;2023-09-07T13:47:40;9.90;;;3.30;;
28760;SDS011;15917;50.014;8.352;2023-09-07T13:50:06;10.77;;;2.95;;
28760;SDS011;15917;50.014;8.352;2023-09-07T13:52:32;5.00;;;3.03;;
28760;SDS011;15917;50.014;8.352;2023-09-07T13:54:58;4.88;;;3.42;;
28760;SDS011;15917;50.014;8.352;2023-09-07T13:57:23;6.40;;;3.03;;
28760;SDS011;15917;50.014;8.352;2023-09-07T13:59:49;4.85;;;2.83;;
28760;SDS011;15917;50.014;8.352;2023-09-07T14:02:14;5.28;;;2.88;;
28760;SDS011;15917;50.014;8.352;2023-09-07T14:04:40;7.68;;;2.63;;
28760;SDS011;15917;50.014;8.352;2023-09-07T14:07:06;8.55;;;3.17;;
28760;SDS011;15917;50.014;8.352;2023-09-07T14:09:31;4.30;;;2.92;;
28760;SDS011;15917;50.014;8.352;2023-09-07T14:11:58;4.25;;;3.13;;
28760;SDS011;15917;50.014;8.352;2023-09-07T14:14:24;4.32;;;2.85;;
28760;SDS011;15917;50.014;8.352;2023-09-07T14:16:49;4.63;;;2.42;;
28760;SDS011;15917;50.014;8.352;2023-09-07T14:19:20;4.28;;;2.90;;
28760;SDS011;15917;50.014;8.352;2023-09-07T14:21:45;4.38;;;2.80;;
28760;SDS011;15917;50.014;8.352;2023-09-07T14:24:11;7.25;;;3.78;;
28760;SDS011;15917;50.014;8.352;2023-09-07T14:26:36;8.10;;;3.03;;
28760;SDS011;15917;50.014;8.352;2023-09-07T14:29:02;11.15;;;2.88;;
28760;SDS011;15917;50.014;8.352;2023-09-07T14:31:27;7.32;;;3.13;;
28760;SDS011;15917;50.014;8.352;2023-09-07T14:33:53;7.18;;;3.00;;
28760;SDS011;15917;50.014;8.352;2023-09-07T14:36:19;3.88;;;3.00;;
28760;SDS011;15917;50.014;8.352;2023-09-07T14:38:44;6.82;;;3.33;;
28760;SDS011;15917;50.014;8.352;2023-09-07T14:41:10;5.40;;;3.47;;
28760;SDS011;15917;50.014;8.352;2023-09-07T14:43:43;7.30;;;3.40;;
28760;SDS011;15917;50.014;8.352;2023-09-07T14:46:09;9.07;;;3.22;;
28760;SDS011;15917;50.014;8.352;2023-09-07T14:48:34;11.70;;;3.38;;
28760;SDS011;15917;50.014;8.352;2023-09-07T14:51:00;5.20;;;3.20;;